sensor_id;sensor_type;location;lat;lon;timestamp;temperature;humidity
69009;SHT31;56065;52.472;13.380;2023-02-24T00:01:48;9.45;84.59
69009;SHT31;56065;52.472;13.380;2023-02-24T00:04:18;9.38;84.53
69009;SHT31;56065;52.472;13.380;2023-02-24T00:06:45;9.41;84.44
69009;SHT31;56065;52.472;13.380;2023-02-24T00:09:16;9.39;84.69
69009;SHT31;56065;52.472;13.380;2023-02-24T00:11:51;9.34;84.68
69009;SHT31;56065;52.472;13.380;2023-02-24T00:14:16;9.34;84.76
69009;SHT31;56065;52.472;13.380;2023-02-24T00:16:43;9.30;84.65
69009;SHT31;56065;52.472;13.380;2023-02-24T00:19:12;9.25;84.47
69009;SHT31;56065;52.472;13.380;2023-02-24T00:21:37;9.21;84.60
69009;SHT31;56065;52.472;13.380;2023-02-24T00:24:03;9.27;84.43
69009;SHT31;56065;52.472;13.380;2023-02-24T00:26:29;9.21;84.31
69009;SHT31;56065;52.472;13.380;2023-02-24T00:28:55;9.15;84.30
69009;SHT31;56065;52.472;13.380;2023-02-24T00:31:24;9.20;84.24
69009;SHT31;56065;52.472;13.380;2023-02-24T00:33:50;9.20;84.29
69009;SHT31;56065;52.472;13.380;2023-02-24T00:36:18;9.14;84.04
69009;SHT31;56065;52.472;13.380;2023-02-24T00:38:55;9.15;83.99
69009;SHT31;56065;52.472;13.380;2023-02-24T00:41:31;9.13;84.01
69009;SHT31;56065;52.472;13.380;2023-02-24T00:44:03;9.10;84.13
69009;SHT31;56065;52.472;13.380;2023-02-24T00:46:38;9.17;83.68
69009;SHT31;56065;52.472;13.380;2023-02-24T00:49:06;9.03;83.98
69009;SHT31;56065;52.472;13.380;2023-02-24T00:51:37;9.01;83.79
69009;SHT31;56065;52.472;13.380;2023-02-24T00:54:02;9.05;83.72
69009;SHT31;56065;52.472;13.380;2023-02-24T00:56:29;9.10;82.89
69009;SHT31;56065;52.472;13.380;2023-02-24T00:58:56;9.00;82.19
69009;SHT31;56065;52.472;13.380;2023-02-24T01:01:27;8.97;82.02
69009;SHT31;56065;52.472;13.380;2023-02-24T01:03:54;8.83;81.88
69009;SHT31;56065;52.472;13.380;2023-02-24T01:06:20;8.80;81.63
69009;SHT31;56065;52.472;13.380;2023-02-24T01:08:47;8.73;81.51
69009;SHT31;56065;52.472;13.380;2023-02-24T01:11:14;8.60;80.46
69009;SHT31;56065;52.472;13.380;2023-02-24T01:13:59;8.50;80.65
69009;SHT31;56065;52.472;13.380;2023-02-24T01:16:24;8.48;79.66
69009;SHT31;56065;52.472;13.380;2023-02-24T01:18:50;8.33;79.37
69009;SHT31;56065;52.472;13.380;2023-02-24T01:21:18;8.35;79.47
69009;SHT31;56065;52.472;13.380;2023-02-24T01:23:50;8.38;79.35
69009;SHT31;56065;52.472;13.380;2023-02-24T01:26:16;8.33;79.06
69009;SHT31;56065;52.472;13.380;2023-02-24T01:28:43;8.28;79.24
69009;SHT31;56065;52.472;13.380;2023-02-24T01:31:11;8.21;79.17
69009;SHT31;56065;52.472;13.380;2023-02-24T01:33:37;8.09;78.68
69009;SHT31;56065;52.472;13.380;2023-02-24T01:36:17;8.08;78.62
69009;SHT31;56065;52.472;13.380;2023-02-24T01:38:44;8.01;79.12
69009;SHT31;56065;52.472;13.380;2023-02-24T01:41:12;7.99;79.36
69009;SHT31;56065;52.472;13.380;2023-02-24T01:44:00;8.02;79.11
69009;SHT31;56065;52.472;13.380;2023-02-24T01:46:33;7.95;79.00
69009;SHT31;56065;52.472;13.380;2023-02-24T01:49:05;7.84;79.05
69009;SHT31;56065;52.472;13.380;2023-02-24T01:51:39;7.78;79.52
69009;SHT31;56065;52.472;13.380;2023-02-24T01:54:09;7.75;79.10
69009;SHT31;56065;52.472;13.380;2023-02-24T01:56:35;7.78;79.17
69009;SHT31;56065;52.472;13.380;2023-02-24T01:59:01;7.74;78.99
69009;SHT31;56065;52.472;13.380;2023-02-24T02:01:28;7.70;79.35
69009;SHT31;56065;52.472;13.380;2023-02-24T02:03:59;7.66;78.51
69009;SHT31;56065;52.472;13.380;2023-02-24T02:06:28;7.67;78.13
69009;SHT31;56065;52.472;13.380;2023-02-24T02:08:54;7.63;78.36
69009;SHT31;56065;52.472;13.380;2023-02-24T02:11:21;7.59;77.14
69009;SHT31;56065;52.472;13.380;2023-02-24T02:13:48;7.44;78.17
69009;SHT31;56065;52.472;13.380;2023-02-24T02:25:15;7.29;76.94
69009;SHT31;56065;52.472;13.380;2023-02-24T02:33:46;7.15;76.78
69009;SHT31;56065;52.472;13.380;2023-02-24T02:39:11;6.99;75.89
69009;SHT31;56065;52.472;13.380;2023-02-24T02:44:36;6.98;75.51
69009;SHT31;56065;52.472;13.380;2023-02-24T02:47:14;6.92;75.29
69009;SHT31;56065;52.472;13.380;2023-02-24T02:49:47;6.85;74.79
69009;SHT31;56065;52.472;13.380;2023-02-24T02:52:23;6.84;74.52
69009;SHT31;56065;52.472;13.380;2023-02-24T02:54:57;6.70;73.83
69009;SHT31;56065;52.472;13.380;2023-02-24T02:57:26;6.71;74.64
69009;SHT31;56065;52.472;13.380;2023-02-24T02:59:58;6.64;74.20
69009;SHT31;56065;52.472;13.380;2023-02-24T03:02:30;6.71;74.34
69009;SHT31;56065;52.472;13.380;2023-02-24T03:05:02;6.72;74.16
69009;SHT31;56065;52.472;13.380;2023-02-24T03:07:32;6.64;73.88
69009;SHT31;56065;52.472;13.380;2023-02-24T03:10:06;6.63;73.91
69009;SHT31;56065;52.472;13.380;2023-02-24T03:12:38;6.64;74.30
69009;SHT31;56065;52.472;13.380;2023-02-24T03:15:06;6.67;74.28
69009;SHT31;56065;52.472;13.380;2023-02-24T03:17:39;6.58;73.91
69009;SHT31;56065;52.472;13.380;2023-02-24T03:20:20;6.64;73.99
69009;SHT31;56065;52.472;13.380;2023-02-24T03:23:00;6.64;74.03
69009;SHT31;56065;52.472;13.380;2023-02-24T03:26:14;6.60;73.88
69009;SHT31;56065;52.472;13.380;2023-02-24T03:31:45;6.57;75.09
69009;SHT31;56065;52.472;13.380;2023-02-24T03:34:24;6.52;74.52
69009;SHT31;56065;52.472;13.380;2023-02-24T03:36:53;6.52;74.57
69009;SHT31;56065;52.472;13.380;2023-02-24T03:39:19;6.45;74.85
69009;SHT31;56065;52.472;13.380;2023-02-24T03:42:06;6.30;74.25
69009;SHT31;56065;52.472;13.380;2023-02-24T03:44:34;6.36;74.59
69009;SHT31;56065;52.472;13.380;2023-02-24T03:47:01;6.38;74.73
69009;SHT31;56065;52.472;13.380;2023-02-24T03:49:26;6.16;74.42
69009;SHT31;56065;52.472;13.380;2023-02-24T03:52:58;6.23;74.78
69009;SHT31;56065;52.472;13.380;2023-02-24T03:57:39;6.27;74.96
69009;SHT31;56065;52.472;13.380;2023-02-24T04:00:23;6.26;74.93
69009;SHT31;56065;52.472;13.380;2023-02-24T04:06:34;6.16;74.92
69009;SHT31;56065;52.472;13.380;2023-02-24T04:08:46;6.20;75.04
69009;SHT31;56065;52.472;13.380;2023-02-24T04:13:50;6.09;74.82
69009;SHT31;56065;52.472;13.380;2023-02-24T04:16:21;6.17;75.14
69009;SHT31;56065;52.472;13.380;2023-02-24T04:19:04;6.09;75.04
69009;SHT31;56065;52.472;13.380;2023-02-24T04:21:32;6.14;75.05
69009;SHT31;56065;52.472;13.380;2023-02-24T04:24:00;6.03;75.20
69009;SHT31;56065;52.472;13.380;2023-02-24T04:26:31;6.09;75.36
69009;SHT31;56065;52.472;13.380;2023-02-24T04:28:57;6.02;75.33
69009;SHT31;56065;52.472;13.380;2023-02-24T04:31:24;6.03;75.05
69009;SHT31;56065;52.472;13.380;2023-02-24T04:33:50;5.89;75.05
69009;SHT31;56065;52.472;13.380;2023-02-24T04:36:18;5.90;75.15
69009;SHT31;56065;52.472;13.380;2023-02-24T04:38:44;6.02;74.96
69009;SHT31;56065;52.472;13.380;2023-02-24T04:41:10;6.00;75.09
69009;SHT31;56065;52.472;13.380;2023-02-24T04:43:36;6.00;75.00
69009;SHT31;56065;52.472;13.380;2023-02-24T04:46:02;6.06;74.59
69009;SHT31;56065;52.472;13.380;2023-02-24T04:48:33;5.92;74.27
69009;SHT31;56065;52.472;13.380;2023-02-24T04:50:59;5.92;74.42
69009;SHT31;56065;52.472;13.380;2023-02-24T04:53:27;5.85;74.53
69009;SHT31;56065;52.472;13.380;2023-02-24T04:55:53;5.76;74.71
69009;SHT31;56065;52.472;13.380;2023-02-24T04:58:22;5.70;74.75
69009;SHT31;56065;52.472;13.380;2023-02-24T05:00:51;5.88;74.73
69009;SHT31;56065;52.472;13.380;2023-02-24T05:03:18;5.72;74.38
69009;SHT31;56065;52.472;13.380;2023-02-24T05:05:52;5.80;75.20
69009;SHT31;56065;52.472;13.380;2023-02-24T05:08:22;5.75;75.06
69009;SHT31;56065;52.472;13.380;2023-02-24T05:10:48;5.76;74.98
69009;SHT31;56065;52.472;13.380;2023-02-24T05:13:17;5.82;74.69
69009;SHT31;56065;52.472;13.380;2023-02-24T05:15:44;5.80;74.68
69009;SHT31;56065;52.472;13.380;2023-02-24T05:18:11;5.95;75.01
69009;SHT31;56065;52.472;13.380;2023-02-24T05:20:54;5.55;74.77
69009;SHT31;56065;52.472;13.380;2023-02-24T05:23:41;5.78;74.95
69009;SHT31;56065;52.472;13.380;2023-02-24T05:26:12;5.62;74.77
69009;SHT31;56065;52.472;13.380;2023-02-24T05:28:41;5.70;74.92
69009;SHT31;56065;52.472;13.380;2023-02-24T05:31:15;5.59;75.16
69009;SHT31;56065;52.472;13.380;2023-02-24T05:33:43;5.62;75.26
69009;SHT31;56065;52.472;13.380;2023-02-24T05:36:11;5.47;75.18
69009;SHT31;56065;52.472;13.380;2023-02-24T05:38:39;5.65;75.37
69009;SHT31;56065;52.472;13.380;2023-02-24T05:41:14;5.63;75.05
69009;SHT31;56065;52.472;13.380;2023-02-24T05:43:47;5.48;75.45
69009;SHT31;56065;52.472;13.380;2023-02-24T05:46:17;5.45;75.80
69009;SHT31;56065;52.472;13.380;2023-02-24T05:48:44;5.51;75.71
69009;SHT31;56065;52.472;13.380;2023-02-24T05:51:09;5.47;75.85
69009;SHT31;56065;52.472;13.380;2023-02-24T05:53:37;5.45;75.73
69009;SHT31;56065;52.472;13.380;2023-02-24T05:56:06;5.51;75.32
69009;SHT31;56065;52.472;13.380;2023-02-24T05:58:32;5.26;75.28
69009;SHT31;56065;52.472;13.380;2023-02-24T06:00:57;5.51;75.36
69009;SHT31;56065;52.472;13.380;2023-02-24T06:03:29;5.63;75.40
69009;SHT31;56065;52.472;13.380;2023-02-24T06:05:56;5.68;75.19
69009;SHT31;56065;52.472;13.380;2023-02-24T06:08:31;5.52;75.27
69009;SHT31;56065;52.472;13.380;2023-02-24T06:11:10;5.30;76.00
69009;SHT31;56065;52.472;13.380;2023-02-24T06:13:37;5.39;76.00
69009;SHT31;56065;52.472;13.380;2023-02-24T06:16:04;5.35;75.79
69009;SHT31;56065;52.472;13.380;2023-02-24T06:18:30;5.30;75.66
69009;SHT31;56065;52.472;13.380;2023-02-24T06:20:55;5.35;75.43
69009;SHT31;56065;52.472;13.380;2023-02-24T06:23:20;5.47;75.12
69009;SHT31;56065;52.472;13.380;2023-02-24T06:25:46;5.42;75.56
69009;SHT31;56065;52.472;13.380;2023-02-24T06:28:11;5.42;75.29
69009;SHT31;56065;52.472;13.380;2023-02-24T06:30:36;5.44;75.51
69009;SHT31;56065;52.472;13.380;2023-02-24T06:33:02;5.42;74.96
69009;SHT31;56065;52.472;13.380;2023-02-24T06:35:30;5.26;74.99
69009;SHT31;56065;52.472;13.380;2023-02-24T06:37:57;5.37;75.09
69009;SHT31;56065;52.472;13.380;2023-02-24T06:40:22;5.61;75.04
69009;SHT31;56065;52.472;13.380;2023-02-24T06:42:50;5.62;74.58
69009;SHT31;56065;52.472;13.380;2023-02-24T06:45:20;5.58;73.91
69009;SHT31;56065;52.472;13.380;2023-02-24T06:47:45;5.49;73.95
69009;SHT31;56065;52.472;13.380;2023-02-24T06:50:13;5.62;73.58
69009;SHT31;56065;52.472;13.380;2023-02-24T06:52:39;5.66;73.37
69009;SHT31;56065;52.472;13.380;2023-02-24T06:55:05;5.61;73.43
69009;SHT31;56065;52.472;13.380;2023-02-24T06:57:49;5.68;73.32
69009;SHT31;56065;52.472;13.380;2023-02-24T07:00:17;5.78;73.28
69009;SHT31;56065;52.472;13.380;2023-02-24T07:02:49;5.58;73.43
69009;SHT31;56065;52.472;13.380;2023-02-24T07:05:14;5.58;73.57
69009;SHT31;56065;52.472;13.380;2023-02-24T07:07:41;5.79;73.48
69009;SHT31;56065;52.472;13.380;2023-02-24T07:10:11;5.55;72.93
69009;SHT31;56065;52.472;13.380;2023-02-24T07:12:37;5.61;72.52
69009;SHT31;56065;52.472;13.380;2023-02-24T07:15:03;5.62;72.04
69009;SHT31;56065;52.472;13.380;2023-02-24T07:17:29;5.69;72.68
69009;SHT31;56065;52.472;13.380;2023-02-24T07:19:54;5.88;72.47
69009;SHT31;56065;52.472;13.380;2023-02-24T07:22:21;5.99;71.60
69009;SHT31;56065;52.472;13.380;2023-02-24T07:24:49;5.95;70.72
69009;SHT31;56065;52.472;13.380;2023-02-24T07:27:16;5.99;70.69
69009;SHT31;56065;52.472;13.380;2023-02-24T07:29:50;5.76;69.80
69009;SHT31;56065;52.472;13.380;2023-02-24T07:32:16;5.99;70.51
69009;SHT31;56065;52.472;13.380;2023-02-24T07:34:42;5.96;68.76
69009;SHT31;56065;52.472;13.380;2023-02-24T07:37:08;6.11;69.10
69009;SHT31;56065;52.472;13.380;2023-02-24T07:39:35;6.06;68.21
69009;SHT31;56065;52.472;13.380;2023-02-24T07:42:01;6.11;67.97
69009;SHT31;56065;52.472;13.380;2023-02-24T07:44:27;6.02;67.15
69009;SHT31;56065;52.472;13.380;2023-02-24T07:46:53;5.96;67.31
69009;SHT31;56065;52.472;13.380;2023-02-24T07:49:21;5.95;67.93
69009;SHT31;56065;52.472;13.380;2023-02-24T07:51:50;6.00;68.19
69009;SHT31;56065;52.472;13.380;2023-02-24T07:54:18;5.93;67.79
69009;SHT31;56065;52.472;13.380;2023-02-24T07:56:45;5.98;68.37
69009;SHT31;56065;52.472;13.380;2023-02-24T07:59:13;6.02;68.88
69009;SHT31;56065;52.472;13.380;2023-02-24T08:01:41;5.95;69.00
69009;SHT31;56065;52.472;13.380;2023-02-24T08:04:18;5.75;69.07
69009;SHT31;56065;52.472;13.380;2023-02-24T08:06:48;5.98;68.80
69009;SHT31;56065;52.472;13.380;2023-02-24T08:09:20;5.90;68.97
69009;SHT31;56065;52.472;13.380;2023-02-24T08:12:06;5.78;68.47
69009;SHT31;56065;52.472;13.380;2023-02-24T08:14:32;6.13;69.37
69009;SHT31;56065;52.472;13.380;2023-02-24T08:16:59;5.96;68.01
69009;SHT31;56065;52.472;13.380;2023-02-24T08:19:30;6.06;68.62
69009;SHT31;56065;52.472;13.380;2023-02-24T08:22:09;5.96;68.53
69009;SHT31;56065;52.472;13.380;2023-02-24T08:24:49;6.10;68.75
69009;SHT31;56065;52.472;13.380;2023-02-24T08:27:16;6.14;68.92
69009;SHT31;56065;52.472;13.380;2023-02-24T08:29:50;5.82;69.28
69009;SHT31;56065;52.472;13.380;2023-02-24T08:32:38;6.07;68.93
69009;SHT31;56065;52.472;13.380;2023-02-24T08:35:12;6.06;69.29
69009;SHT31;56065;52.472;13.380;2023-02-24T08:37:43;6.06;69.23
69009;SHT31;56065;52.472;13.380;2023-02-24T08:40:15;5.89;68.90
69009;SHT31;56065;52.472;13.380;2023-02-24T08:48:34;6.07;68.61
69009;SHT31;56065;52.472;13.380;2023-02-24T08:53:40;6.24;68.28
69009;SHT31;56065;52.472;13.380;2023-02-24T08:56:09;6.23;69.23
69009;SHT31;56065;52.472;13.380;2023-02-24T08:58:43;6.30;68.78
69009;SHT31;56065;52.472;13.380;2023-02-24T09:01:15;6.40;68.93
69009;SHT31;56065;52.472;13.380;2023-02-24T09:03:48;6.63;68.78
69009;SHT31;56065;52.472;13.380;2023-02-24T09:06:17;6.75;68.36
69009;SHT31;56065;52.472;13.380;2023-02-24T09:08:51;6.65;68.00
69009;SHT31;56065;52.472;13.380;2023-02-24T09:11:36;6.44;68.03
69009;SHT31;56065;52.472;13.380;2023-02-24T09:14:02;6.38;68.42
69009;SHT31;56065;52.472;13.380;2023-02-24T09:16:29;6.24;67.62
69009;SHT31;56065;52.472;13.380;2023-02-24T09:18:54;6.45;68.46
69009;SHT31;56065;52.472;13.380;2023-02-24T09:21:39;6.54;68.03
69009;SHT31;56065;52.472;13.380;2023-02-24T09:24:14;6.52;67.97
69009;SHT31;56065;52.472;13.380;2023-02-24T09:26:53;6.24;68.28
69009;SHT31;56065;52.472;13.380;2023-02-24T09:29:24;6.17;68.15
69009;SHT31;56065;52.472;13.380;2023-02-24T09:32:03;6.09;68.68
69009;SHT31;56065;52.472;13.380;2023-02-24T09:34:39;6.29;68.97
69009;SHT31;56065;52.472;13.380;2023-02-24T09:37:11;6.71;68.24
69009;SHT31;56065;52.472;13.380;2023-02-24T09:39:50;6.71;67.69
69009;SHT31;56065;52.472;13.380;2023-02-24T09:42:25;6.93;67.94
69009;SHT31;56065;52.472;13.380;2023-02-24T09:45:00;7.08;67.23
69009;SHT31;56065;52.472;13.380;2023-02-24T09:52:57;6.72;66.65
69009;SHT31;56065;52.472;13.380;2023-02-24T09:55:54;6.31;67.28
69009;SHT31;56065;52.472;13.380;2023-02-24T10:07:30;6.70;66.40
69009;SHT31;56065;52.472;13.380;2023-02-24T10:10:07;6.70;66.44
69009;SHT31;56065;52.472;13.380;2023-02-24T10:12:52;6.61;66.07
69009;SHT31;56065;52.472;13.380;2023-02-24T10:15:21;6.65;66.23
69009;SHT31;56065;52.472;13.380;2023-02-24T10:21:19;7.08;65.98
69009;SHT31;56065;52.472;13.380;2023-02-24T10:26:52;7.46;64.56
69009;SHT31;56065;52.472;13.380;2023-02-24T10:32:22;7.75;63.97
69009;SHT31;56065;52.472;13.380;2023-02-24T10:34:55;7.87;64.19
69009;SHT31;56065;52.472;13.380;2023-02-24T10:37:23;7.67;63.56
69009;SHT31;56065;52.472;13.380;2023-02-24T10:39:55;7.84;63.76
69009;SHT31;56065;52.472;13.380;2023-02-24T10:42:24;7.37;64.37
69009;SHT31;56065;52.472;13.380;2023-02-24T10:44:51;7.29;63.84
69009;SHT31;56065;52.472;13.380;2023-02-24T10:47:37;7.27;65.04
69009;SHT31;56065;52.472;13.380;2023-02-24T10:50:20;6.92;65.63
69009;SHT31;56065;52.472;13.380;2023-02-24T10:52:47;6.89;66.10
69009;SHT31;56065;52.472;13.380;2023-02-24T10:55:43;6.65;66.60
69009;SHT31;56065;52.472;13.380;2023-02-24T11:00:54;6.77;67.72
69009;SHT31;56065;52.472;13.380;2023-02-24T11:03:51;6.84;68.55
69009;SHT31;56065;52.472;13.380;2023-02-24T11:06:30;6.58;69.82
69009;SHT31;56065;52.472;13.380;2023-02-24T11:09:19;6.67;70.75
69009;SHT31;56065;52.472;13.380;2023-02-24T11:14:52;6.65;73.11
69009;SHT31;56065;52.472;13.380;2023-02-24T11:17:43;6.57;74.05
69009;SHT31;56065;52.472;13.380;2023-02-24T11:22:54;5.98;75.81
69009;SHT31;56065;52.472;13.380;2023-02-24T11:25:36;5.72;77.60
69009;SHT31;56065;52.472;13.380;2023-02-24T11:28:04;5.54;78.98
69009;SHT31;56065;52.472;13.380;2023-02-24T11:30:42;5.31;80.05
69009;SHT31;56065;52.472;13.380;2023-02-24T11:41:28;4.90;83.91
69009;SHT31;56065;52.472;13.380;2023-02-24T11:44:16;4.63;83.90
69009;SHT31;56065;52.472;13.380;2023-02-24T11:47:01;4.77;84.21
69009;SHT31;56065;52.472;13.380;2023-02-24T11:49:42;4.56;84.38
69009;SHT31;56065;52.472;13.380;2023-02-24T11:52:18;4.69;84.09
69009;SHT31;56065;52.472;13.380;2023-02-24T11:54:47;4.38;84.64
69009;SHT31;56065;52.472;13.380;2023-02-24T11:57:18;4.38;84.79
69009;SHT31;56065;52.472;13.380;2023-02-24T12:00:00;4.28;85.03
69009;SHT31;56065;52.472;13.380;2023-02-24T12:02:48;4.22;84.97
69009;SHT31;56065;52.472;13.380;2023-02-24T12:05:24;4.49;85.39
69009;SHT31;56065;52.472;13.380;2023-02-24T12:08:00;4.60;85.33
69009;SHT31;56065;52.472;13.380;2023-02-24T12:10:34;4.80;84.42
69009;SHT31;56065;52.472;13.380;2023-02-24T12:15:41;4.56;84.47
69009;SHT31;56065;52.472;13.380;2023-02-24T12:21:31;4.24;85.54
69009;SHT31;56065;52.472;13.380;2023-02-24T12:23:58;4.28;85.25
69009;SHT31;56065;52.472;13.380;2023-02-24T12:32:01;4.39;84.56
69009;SHT31;56065;52.472;13.380;2023-02-24T12:37:57;4.28;84.69
69009;SHT31;56065;52.472;13.380;2023-02-24T12:49:10;4.12;86.22
69009;SHT31;56065;52.472;13.380;2023-02-24T12:59:37;4.21;86.20
69009;SHT31;56065;52.472;13.380;2023-02-24T13:02:39;4.09;86.30
69009;SHT31;56065;52.472;13.380;2023-02-24T13:08:03;4.24;86.40
69009;SHT31;56065;52.472;13.380;2023-02-24T13:11:14;3.93;87.17
69009;SHT31;56065;52.472;13.380;2023-02-24T13:14:02;3.86;87.51
69009;SHT31;56065;52.472;13.380;2023-02-24T13:16:31;3.87;87.77
69009;SHT31;56065;52.472;13.380;2023-02-24T13:21:56;3.83;87.37
69009;SHT31;56065;52.472;13.380;2023-02-24T13:24:24;4.05;86.94
69009;SHT31;56065;52.472;13.380;2023-02-24T13:26:50;4.01;88.20
69009;SHT31;56065;52.472;13.380;2023-02-24T13:29:16;3.91;87.79
69009;SHT31;56065;52.472;13.380;2023-02-24T13:31:44;3.83;87.77
69009;SHT31;56065;52.472;13.380;2023-02-24T13:34:27;3.81;87.95
69009;SHT31;56065;52.472;13.380;2023-02-24T13:36:53;3.81;88.35
69009;SHT31;56065;52.472;13.380;2023-02-24T13:39:39;3.83;88.66
69009;SHT31;56065;52.472;13.380;2023-02-24T13:42:24;3.88;87.95
69009;SHT31;56065;52.472;13.380;2023-02-24T13:53:07;3.71;88.84
69009;SHT31;56065;52.472;13.380;2023-02-24T14:01:05;3.77;88.53
69009;SHT31;56065;52.472;13.380;2023-02-24T14:03:31;3.70;88.42
69009;SHT31;56065;52.472;13.380;2023-02-24T14:05:58;3.64;88.92
69009;SHT31;56065;52.472;13.380;2023-02-24T14:10:58;3.63;88.69
69009;SHT31;56065;52.472;13.380;2023-02-24T14:13:26;3.77;88.98
69009;SHT31;56065;52.472;13.380;2023-02-24T14:15:54;3.76;88.82
69009;SHT31;56065;52.472;13.380;2023-02-24T14:18:24;3.87;88.44
69009;SHT31;56065;52.472;13.380;2023-02-24T14:20:51;3.80;88.44
69009;SHT31;56065;52.472;13.380;2023-02-24T14:23:29;3.74;88.63
69009;SHT31;56065;52.472;13.380;2023-02-24T14:26:01;3.83;88.71
69009;SHT31;56065;52.472;13.380;2023-02-24T14:28:32;4.01;88.45
69009;SHT31;56065;52.472;13.380;2023-02-24T14:31:05;3.78;88.35
69009;SHT31;56065;52.472;13.380;2023-02-24T14:33:33;3.76;88.75
69009;SHT31;56065;52.472;13.380;2023-02-24T14:36:00;3.87;88.36
69009;SHT31;56065;52.472;13.380;2023-02-24T14:38:33;3.90;88.63
69009;SHT31;56065;52.472;13.380;2023-02-24T14:41:21;3.87;88.48
69009;SHT31;56065;52.472;13.380;2023-02-24T14:43:47;3.90;88.45
69009;SHT31;56065;52.472;13.380;2023-02-24T14:46:12;3.93;88.33
69009;SHT31;56065;52.472;13.380;2023-02-24T14:48:37;3.91;88.42
69009;SHT31;56065;52.472;13.380;2023-02-24T14:53:29;3.97;88.03
69009;SHT31;56065;52.472;13.380;2023-02-24T14:55:59;4.11;88.25
69009;SHT31;56065;52.472;13.380;2023-02-24T14:58:33;4.01;87.92
69009;SHT31;56065;52.472;13.380;2023-02-24T15:01:04;3.93;88.23
69009;SHT31;56065;52.472;13.380;2023-02-24T15:03:43;3.94;88.28
69009;SHT31;56065;52.472;13.380;2023-02-24T15:06:21;3.99;88.03
69009;SHT31;56065;52.472;13.380;2023-02-24T15:08:54;3.95;88.86
69009;SHT31;56065;52.472;13.380;2023-02-24T15:11:21;3.91;88.81
69009;SHT31;56065;52.472;13.380;2023-02-24T15:13:50;3.74;88.79
69009;SHT31;56065;52.472;13.380;2023-02-24T15:19:00;3.55;89.55
69009;SHT31;56065;52.472;13.380;2023-02-24T15:21:37;3.57;89.82
69009;SHT31;56065;52.472;13.380;2023-02-24T15:24:15;3.56;89.66
69009;SHT31;56065;52.472;13.380;2023-02-24T15:26:41;3.50;89.79
69009;SHT31;56065;52.472;13.380;2023-02-24T15:29:22;3.56;89.66
69009;SHT31;56065;52.472;13.380;2023-02-24T15:31:50;3.60;89.88
69009;SHT31;56065;52.472;13.380;2023-02-24T15:34:18;3.64;89.58
69009;SHT31;56065;52.472;13.380;2023-02-24T15:36:44;3.50;89.73
69009;SHT31;56065;52.472;13.380;2023-02-24T15:39:17;3.50;89.97
69009;SHT31;56065;52.472;13.380;2023-02-24T15:41:47;3.47;89.71
69009;SHT31;56065;52.472;13.380;2023-02-24T15:46:49;3.46;90.16
69009;SHT31;56065;52.472;13.380;2023-02-24T15:49:14;3.67;89.88
69009;SHT31;56065;52.472;13.380;2023-02-24T15:51:41;3.69;89.35
69009;SHT31;56065;52.472;13.380;2023-02-24T15:54:12;3.63;89.22
69009;SHT31;56065;52.472;13.380;2023-02-24T15:56:39;3.73;89.17
69009;SHT31;56065;52.472;13.380;2023-02-24T15:59:05;3.76;88.94
69009;SHT31;56065;52.472;13.380;2023-02-24T16:01:31;3.60;89.35
69009;SHT31;56065;52.472;13.380;2023-02-24T16:04:01;3.59;89.67
69009;SHT31;56065;52.472;13.380;2023-02-24T16:06:29;3.50;89.86
69009;SHT31;56065;52.472;13.380;2023-02-24T16:08:55;3.46;90.06
69009;SHT31;56065;52.472;13.380;2023-02-24T16:11:25;3.63;89.48
69009;SHT31;56065;52.472;13.380;2023-02-24T16:13:54;3.64;89.42
69009;SHT31;56065;52.472;13.380;2023-02-24T16:16:20;3.52;89.72
69009;SHT31;56065;52.472;13.380;2023-02-24T16:18:46;3.47;89.90
69009;SHT31;56065;52.472;13.380;2023-02-24T16:21:11;3.59;90.05
69009;SHT31;56065;52.472;13.380;2023-02-24T16:23:38;3.63;89.75
69009;SHT31;56065;52.472;13.380;2023-02-24T16:26:06;3.71;89.46
69009;SHT31;56065;52.472;13.380;2023-02-24T16:28:33;3.67;89.79
69009;SHT31;56065;52.472;13.380;2023-02-24T16:30:59;3.77;89.61
69009;SHT31;56065;52.472;13.380;2023-02-24T16:33:26;3.86;89.54
69009;SHT31;56065;52.472;13.380;2023-02-24T16:35:52;4.09;88.95
69009;SHT31;56065;52.472;13.380;2023-02-24T16:38:20;3.94;88.81
69009;SHT31;56065;52.472;13.380;2023-02-24T16:40:47;4.09;88.60
69009;SHT31;56065;52.472;13.380;2023-02-24T16:43:14;4.07;88.61
69009;SHT31;56065;52.472;13.380;2023-02-24T16:45:40;4.07;88.71
69009;SHT31;56065;52.472;13.380;2023-02-24T16:48:11;3.91;88.89
69009;SHT31;56065;52.472;13.380;2023-02-24T16:50:39;3.93;89.09
69009;SHT31;56065;52.472;13.380;2023-02-24T16:53:06;3.71;89.22
69009;SHT31;56065;52.472;13.380;2023-02-24T16:55:32;3.87;89.52
69009;SHT31;56065;52.472;13.380;2023-02-24T16:57:57;4.02;88.76
69009;SHT31;56065;52.472;13.380;2023-02-24T17:00:22;3.99;88.97
69009;SHT31;56065;52.472;13.380;2023-02-24T17:02:49;3.86;89.22
69009;SHT31;56065;52.472;13.380;2023-02-24T17:05:21;4.05;88.87
69009;SHT31;56065;52.472;13.380;2023-02-24T17:07:48;4.05;88.76
69009;SHT31;56065;52.472;13.380;2023-02-24T17:10:15;3.95;89.10
69009;SHT31;56065;52.472;13.380;2023-02-24T17:12:41;3.94;89.30
69009;SHT31;56065;52.472;13.380;2023-02-24T17:15:09;3.90;89.43
69009;SHT31;56065;52.472;13.380;2023-02-24T17:17:36;3.83;89.37
69009;SHT31;56065;52.472;13.380;2023-02-24T17:20:01;3.99;89.08
69009;SHT31;56065;52.472;13.380;2023-02-24T17:22:27;3.90;89.10
69009;SHT31;56065;52.472;13.380;2023-02-24T17:24:52;3.95;90.38
69009;SHT31;56065;52.472;13.380;2023-02-24T17:27:18;4.04;89.53
69009;SHT31;56065;52.472;13.380;2023-02-24T17:29:43;4.14;89.18
69009;SHT31;56065;52.472;13.380;2023-02-24T17:32:08;4.24;88.88
69009;SHT31;56065;52.472;13.380;2023-02-24T17:34:34;4.35;88.50
69009;SHT31;56065;52.472;13.380;2023-02-24T17:36:59;4.15;88.80
69009;SHT31;56065;52.472;13.380;2023-02-24T17:39:24;4.25;88.74
69009;SHT31;56065;52.472;13.380;2023-02-24T17:41:50;4.15;88.65
69009;SHT31;56065;52.472;13.380;2023-02-24T17:44:15;4.18;88.55
69009;SHT31;56065;52.472;13.380;2023-02-24T17:46:41;4.14;88.48
69009;SHT31;56065;52.472;13.380;2023-02-24T17:49:06;4.27;88.67
69009;SHT31;56065;52.472;13.380;2023-02-24T17:51:32;4.32;88.38
69009;SHT31;56065;52.472;13.380;2023-02-24T17:53:57;4.31;88.65
69009;SHT31;56065;52.472;13.380;2023-02-24T17:56:22;4.27;88.52
69009;SHT31;56065;52.472;13.380;2023-02-24T17:58:48;4.41;88.41
69009;SHT31;56065;52.472;13.380;2023-02-24T18:01:13;4.52;88.07
69009;SHT31;56065;52.472;13.380;2023-02-24T18:03:39;4.27;88.58
69009;SHT31;56065;52.472;13.380;2023-02-24T18:06:09;4.32;88.59
69009;SHT31;56065;52.472;13.380;2023-02-24T18:08:36;4.38;88.71
69009;SHT31;56065;52.472;13.380;2023-02-24T18:11:03;4.15;88.64
69009;SHT31;56065;52.472;13.380;2023-02-24T18:13:30;4.25;88.84
69009;SHT31;56065;52.472;13.380;2023-02-24T18:15:56;4.41;88.64